Time;durP1;ratioP1;P1;durP2;ratioP2;P2;SDS_P1;SDS_P2;PMS_P1;PMS_P2;Temp;Humidity;BMP_temperature;BMP_pressure;BME280_temperature;BME280_humidity;BME280_pressure;Samples;Min_cycle;Max_cycle;Signal;HPM_P1;HPM_P2
2022/01/22 00:01:29;;;;;;;1.10;1.10;;;;;;;;;;6285848;28;20217;-76
2022/01/22 00:04:34;;;;;;;2.37;1.83;;;;;;;;;;6285513;28;20239;-77
2022/01/22 00:07:41;;;;;;;2.20;1.40;;;;;;;;;;6287438;28;20232;-76
2022/01/22 00:10:49;;;;;;;1.23;1.23;;;;;;;;;;6290713;28;20217;-77
2022/01/22 00:17:15;;;;;;;1.20;1.10;;;;;;;;;;6289647;28;20191;-76
2022/01/22 00:20:22;;;;;;;1.77;1.70;;;;;;;;;;6289337;28;20229;-76
2022/01/22 00:23:28;;;;;;;1.03;1.03;;;;;;;;;;6288839;28;20233;-76
2022/01/22 00:26:33;;;;;;;1.40;1.40;;;;;;;;;;6289306;28;20241;-76
2022/01/22 00:29:37;;;;;;;2.87;1.47;;;;;;;;;;6289035;28;20533;-76
2022/01/22 00:32:42;;;;;;;1.30;1.30;;;;;;;;;;6269360;28;20265;-76
2022/01/22 00:35:46;;;;;;;1.10;1.10;;;;;;;;;;6268539;28;20269;-76
2022/01/22 00:38:50;;;;;;;2.13;1.77;;;;;;;;;;6296394;28;20236;-76
2022/01/22 00:41:55;;;;;;;1.00;1.00;;;;;;;;;;6296087;28;20206;-77
2022/01/22 00:45:00;;;;;;;1.17;1.07;;;;;;;;;;6313763;28;20459;-76
2022/01/22 00:48:05;;;;;;;2.23;1.17;;;;;;;;;;6314052;28;20228;-76
2022/01/22 00:51:12;;;;;;;2.67;1.20;;;;;;;;;;6313777;28;20472;-76
2022/01/22 00:54:17;;;;;;;1.33;1.33;;;;;;;;;;6295972;28;20231;-76
2022/01/22 00:57:23;;;;;;;2.80;1.57;;;;;;;;;;6296029;28;20230;-76
2022/01/22 01:00:27;;;;;;;1.37;1.37;;;;;;;;;;6295492;28;20306;-76
2022/01/22 01:03:34;;;;;;;1.27;1.20;;;;;;;;;;6313068;28;20291;-76
2022/01/22 01:06:39;;;;;;;1.37;1.37;;;;;;;;;;6289095;28;20201;-76
2022/01/22 01:09:44;;;;;;;2.03;1.80;;;;;;;;;;6295763;28;20228;-76
2022/01/22 01:12:52;;;;;;;1.40;1.40;;;;;;;;;;6295564;28;20490;-76
2022/01/22 01:16:01;;;;;;;1.43;1.33;;;;;;;;;;6296466;28;20542;-76
2022/01/22 01:32:44;;;;;;;2.57;1.80;;;;;;;;;;6266403;28;20198;-76
2022/01/22 01:35:49;;;;;;;4.27;1.23;;;;;;;;;;6245707;28;20264;-76
2022/01/22 01:38:57;;;;;;;4.20;1.40;;;;;;;;;;6245823;28;20249;-76
2022/01/22 01:42:05;;;;;;;1.10;1.10;;;;;;;;;;6246389;28;20265;-76
2022/01/22 01:45:13;;;;;;;1.20;1.20;;;;;;;;;;6245450;28;20236;-76
2022/01/22 01:48:27;;;;;;;1.27;1.17;;;;;;;;;;6245322;28;20241;-76
2022/01/22 01:51:33;;;;;;;1.20;1.20;;;;;;;;;;6263110;28;20333;-76
2022/01/22 01:54:47;;;;;;;1.60;1.60;;;;;;;;;;6262766;28;20284;-76
2022/01/22 01:57:51;;;;;;;1.30;1.30;;;;;;;;;;6245269;28;20205;-77
2022/01/22 02:01:00;;;;;;;1.30;1.30;;;;;;;;;;6246164;28;20206;-76
2022/01/22 02:04:08;;;;;;;7.90;1.00;;;;;;;;;;6244895;28;20247;-76
2022/01/22 02:07:13;;;;;;;1.33;1.33;;;;;;;;;;6245441;28;20201;-76
2022/01/22 02:10:27;;;;;;;1.77;1.50;;;;;;;;;;6244797;28;20410;-76
2022/01/22 02:13:47;;;;;;;1.50;1.40;;;;;;;;;;6244074;28;20233;-76
2022/01/22 02:23:46;;;;;;;1.10;1.10;;;;;;;;;;6244136;28;20230;-76
2022/01/22 02:26:50;;;;;;;1.97;1.87;;;;;;;;;;6262912;28;20248;-76
2022/01/22 02:30:17;;;;;;;1.43;1.33;;;;;;;;;;6243693;28;20301;-77
2022/01/22 02:33:44;;;;;;;1.27;1.27;;;;;;;;;;6243577;28;20225;-77
2022/01/22 02:36:59;;;;;;;4.50;1.47;;;;;;;;;;6243900;28;20533;-76
2022/01/22 02:40:11;;;;;;;1.10;1.10;;;;;;;;;;6244310;28;20297;-76
2022/01/22 02:43:18;;;;;;;1.47;1.47;;;;;;;;;;6244613;28;20233;-76
2022/01/22 02:46:25;;;;;;;1.20;1.20;;;;;;;;;;6244868;28;20206;-76
2022/01/22 02:49:29;;;;;;;1.60;1.20;;;;;;;;;;6244596;28;20254;-76
2022/01/22 02:52:33;;;;;;;1.20;1.20;;;;;;;;;;6245250;28;20210;-76
2022/01/22 02:55:41;;;;;;;1.40;1.33;;;;;;;;;;6261263;28;20349;-76
2022/01/22 02:58:45;;;;;;;2.87;1.30;;;;;;;;;;6243753;28;20579;-76
2022/01/22 03:01:49;;;;;;;1.87;1.73;;;;;;;;;;6261295;28;20489;-76
2022/01/22 03:04:54;;;;;;;1.37;1.37;;;;;;;;;;6243675;28;20229;-76
2022/01/22 03:08:04;;;;;;;1.37;1.20;;;;;;;;;;6243493;28;20228;-76
2022/01/22 03:11:19;;;;;;;1.20;1.20;;;;;;;;;;6244975;28;20209;-76
2022/01/22 03:17:53;;;;;;;2.53;1.10;;;;;;;;;;6212532;28;20205;-76
2022/01/22 03:21:11;;;;;;;3.43;1.10;;;;;;;;;;6243887;28;20267;-76
2022/01/22 03:27:38;;;;;;;1.20;1.20;;;;;;;;;;6262225;28;20191;-76
2022/01/22 03:30:43;;;;;;;1.20;1.20;;;;;;;;;;6247135;28;20232;-77
2022/01/22 03:34:05;;;;;;;1.23;1.23;;;;;;;;;;6285886;28;20228;-77
2022/01/22 03:37:11;;;;;;;1.53;1.50;;;;;;;;;;6286293;28;20236;-77
2022/01/22 03:40:15;;;;;;;1.40;1.30;;;;;;;;;;6284355;28;20238;-76
2022/01/22 03:43:22;;;;;;;5.30;1.40;;;;;;;;;;6287041;28;20527;-77
2022/01/22 03:46:30;;;;;;;1.37;1.37;;;;;;;;;;6289890;28;20201;-77
2022/01/22 03:49:35;;;;;;;8.33;1.37;;;;;;;;;;6288933;28;20527;-76
2022/01/22 03:52:43;;;;;;;1.40;1.40;;;;;;;;;;6289785;28;20207;-76
2022/01/22 03:55:55;;;;;;;6.63;2.27;;;;;;;;;;6289461;28;20216;-76
2022/01/22 03:59:08;;;;;;;1.57;1.47;;;;;;;;;;6290639;28;20229;-77
2022/01/22 04:06:03;;;;;;;1.83;1.57;;;;;;;;;;6288728;28;20220;-76
2022/01/22 04:09:12;;;;;;;1.80;1.70;;;;;;;;;;6288559;28;20535;-76
2022/01/22 04:12:23;;;;;;;1.63;1.63;;;;;;;;;;6288877;28;20208;-76
2022/01/22 04:15:32;;;;;;;1.87;1.77;;;;;;;;;;6289816;28;20277;-76
2022/01/22 04:25:24;;;;;;;1.90;1.40;;;;;;;;;;6289500;28;20255;-76
2022/01/22 04:28:28;;;;;;;1.57;1.47;;;;;;;;;;6288161;28;20239;-77
2022/01/22 04:31:34;;;;;;;4.23;1.00;;;;;;;;;;6290088;28;20203;-76
2022/01/22 04:34:38;;;;;;;1.13;1.13;;;;;;;;;;6271488;28;20332;-77
2022/01/22 04:37:42;;;;;;;3.63;1.70;;;;;;;;;;6271619;28;20328;-76
2022/01/22 04:40:46;;;;;;;4.50;1.53;;;;;;;;;;6290149;28;20209;-77
2022/01/22 04:43:58;;;;;;;1.93;1.17;;;;;;;;;;6289370;28;20257;-77
2022/01/22 04:47:18;;;;;;;3.60;1.17;;;;;;;;;;6271755;28;20389;-76
2022/01/22 04:57:07;;;;;;;1.10;1.10;;;;;;;;;;6272440;28;20304;-76
2022/01/22 05:00:16;;;;;;;3.50;1.23;;;;;;;;;;6271085;28;20588;-76
2022/01/22 05:03:41;;;;;;;1.53;1.30;;;;;;;;;;6288594;28;20513;-77
2022/01/22 05:07:04;;;;;;;1.23;1.23;;;;;;;;;;6288788;28;20377;-76
2022/01/22 05:10:32;;;;;;;1.30;1.30;;;;;;;;;;6270118;28;20306;-76
2022/01/22 05:13:36;;;;;;;1.53;1.53;;;;;;;;;;6271130;28;20343;-77
2022/01/22 05:16:44;;;;;;;1.40;1.40;;;;;;;;;;6271162;28;20537;-76
2022/01/22 05:19:55;;;;;;;1.40;1.40;;;;;;;;;;6270309;28;20292;-76
2022/01/22 05:23:05;;;;;;;1.40;1.40;;;;;;;;;;6270288;28;20202;-76
2022/01/22 05:26:26;;;;;;;1.10;1.10;;;;;;;;;;6271433;28;20201;-76
2022/01/22 05:29:59;;;;;;;1.10;1.10;;;;;;;;;;6270159;28;20240;-75
2022/01/22 05:37:06;;;;;;;2.60;1.73;;;;;;;;;;6263428;28;20314;-76
2022/01/22 05:40:11;;;;;;;2.73;1.67;;;;;;;;;;6245050;28;20297;-76
2022/01/22 05:43:16;;;;;;;2.67;1.50;;;;;;;;;;6263076;28;20229;-76
2022/01/22 05:46:20;;;;;;;1.37;1.37;;;;;;;;;;6263749;28;20270;-76
2022/01/22 05:49:26;;;;;;;1.43;1.43;;;;;;;;;;6244821;28;20251;-76
2022/01/22 05:52:38;;;;;;;5.10;1.30;;;;;;;;;;6245881;28;20205;-77
2022/01/22 05:59:39;;;;;;;3.53;1.60;;;;;;;;;;6263053;28;20240;-77
2022/01/22 06:02:45;;;;;;;1.30;1.30;;;;;;;;;;6244406;28;20232;-77
2022/01/22 06:05:53;;;;;;;1.87;1.77;;;;;;;;;;6245395;28;20303;-77
2022/01/22 06:09:01;;;;;;;1.70;1.60;;;;;;;;;;6245214;28;20267;-76
2022/01/22 06:12:27;;;;;;;1.63;1.63;;;;;;;;;;6245239;28;20496;-77
2022/01/22 06:15:31;;;;;;;1.83;1.73;;;;;;;;;;6244646;28;20236;-76
2022/01/22 06:18:59;;;;;;;1.30;1.30;;;;;;;;;;6261801;28;20235;-77
2022/01/22 06:22:03;;;;;;;1.43;1.30;;;;;;;;;;6244461;28;20388;-77
2022/01/22 06:25:12;;;;;;;1.07;1.07;;;;;;;;;;6261451;28;20243;-76
2022/01/22 06:28:16;;;;;;;1.30;1.30;;;;;;;;;;6243806;28;20231;-77
2022/01/22 06:31:23;;;;;;;1.30;1.30;;;;;;;;;;6246339;28;20253;-77
2022/01/22 06:34:28;;;;;;;1.10;1.10;;;;;;;;;;6260707;28;20252;-76
2022/01/22 06:37:33;;;;;;;1.23;1.23;;;;;;;;;;6275127;28;20235;-76
2022/01/22 06:44:55;;;;;;;1.23;1.23;;;;;;;;;;6286100;28;20231;-77
2022/01/22 06:48:20;;;;;;;1.17;1.10;;;;;;;;;;6285738;28;20235;-77
2022/01/22 06:51:44;;;;;;;1.43;1.33;;;;;;;;;;6286193;28;20228;-76
2022/01/22 06:54:48;;;;;;;1.30;1.30;;;;;;;;;;6284599;28;20228;-77
2022/01/22 06:57:54;;;;;;;4.47;1.40;;;;;;;;;;6284765;28;20380;-77
2022/01/22 07:01:04;;;;;;;1.47;1.47;;;;;;;;;;6285494;28;20222;-76
2022/01/22 07:04:17;;;;;;;1.57;1.47;;;;;;;;;;6284376;28;20227;-76
2022/01/22 07:07:36;;;;;;;1.20;1.20;;;;;;;;;;6285809;28;20208;-76
2022/01/22 07:10:40;;;;;;;1.00;1.00;;;;;;;;;;6284178;28;20228;-76
2022/01/22 07:13:47;;;;;;;1.60;1.60;;;;;;;;;;6284912;28;20255;-76
2022/01/22 07:16:51;;;;;;;1.00;1.00;;;;;;;;;;6287308;28;20252;-76
2022/01/22 07:20:15;;;;;;;1.30;1.30;;;;;;;;;;6289861;28;20239;-75
2022/01/22 07:23:43;;;;;;;1.93;1.63;;;;;;;;;;6289610;28;20298;-75
2022/01/22 07:26:50;;;;;;;2.10;1.40;;;;;;;;;;6291141;28;20207;-75
2022/01/22 07:29:57;;;;;;;0.93;0.93;;;;;;;;;;6288812;28;20571;-76
2022/01/22 07:33:02;;;;;;;1.40;1.40;;;;;;;;;;6273706;28;20310;-76
2022/01/22 07:36:07;;;;;;;3.03;1.40;;;;;;;;;;6272612;28;20242;-76
2022/01/22 07:39:12;;;;;;;1.30;1.30;;;;;;;;;;6272806;28;20538;-76
2022/01/22 07:42:39;;;;;;;1.70;1.70;;;;;;;;;;6290684;28;20483;-76
2022/01/22 07:46:04;;;;;;;1.20;1.20;;;;;;;;;;6290849;28;20211;-76
2022/01/22 07:49:19;;;;;;;1.60;1.57;;;;;;;;;;6272295;28;20241;-76
2022/01/22 07:52:27;;;;;;;1.30;1.30;;;;;;;;;;6273339;28;20234;-76
2022/01/22 07:55:32;;;;;;;1.13;1.13;;;;;;;;;;6272708;28;20538;-76
2022/01/22 07:58:36;;;;;;;1.90;1.60;;;;;;;;;;6272905;28;20253;-76
2022/01/22 08:01:42;;;;;;;1.37;1.37;;;;;;;;;;6272447;28;20239;-76
2022/01/22 08:04:56;;;;;;;1.30;1.30;;;;;;;;;;6290012;28;20252;-76
2022/01/22 08:08:38;;;;;;;1.63;1.50;;;;;;;;;;6238599;28;20301;-76
2022/01/22 08:12:01;;;;;;;1.03;1.03;;;;;;;;;;6241813;28;20216;-77
2022/01/22 08:15:12;;;;;;;0.93;0.93;;;;;;;;;;6272507;28;20234;-77
2022/01/22 08:18:19;;;;;;;6.07;1.37;;;;;;;;;;6289253;28;20511;-77
2022/01/22 08:21:24;;;;;;;1.80;1.17;;;;;;;;;;6272278;28;20276;-77
2022/01/22 08:24:47;;;;;;;1.90;1.80;;;;;;;;;;6289473;28;20542;-77
2022/01/22 08:31:23;;;;;;;1.27;1.27;;;;;;;;;;6272681;28;20224;-77
2022/01/22 08:37:53;;;;;;;1.70;1.70;;;;;;;;;;6287561;28;20307;-78
2022/01/22 08:40:57;;;;;;;1.27;1.27;;;;;;;;;;6288063;28;20437;-77
2022/01/22 08:44:06;;;;;;;1.27;1.27;;;;;;;;;;6287508;28;20232;-77
2022/01/22 08:47:11;;;;;;;1.10;1.10;;;;;;;;;;6288315;28;20223;-77
2022/01/22 08:50:17;;;;;;;2.03;1.37;;;;;;;;;;6287000;28;20229;-77
2022/01/22 08:53:21;;;;;;;1.33;1.33;;;;;;;;;;6287337;28;20251;-77
2022/01/22 08:56:25;;;;;;;1.27;1.27;;;;;;;;;;6288664;28;20185;-77
2022/01/22 08:59:29;;;;;;;1.30;1.30;;;;;;;;;;6286815;28;20338;-77
2022/01/22 09:02:40;;;;;;;2.07;1.37;;;;;;;;;;6288126;28;20210;-77
2022/01/22 09:06:00;;;;;;;1.80;1.60;;;;;;;;;;6287592;28;20217;-77
2022/01/22 09:09:26;;;;;;;1.50;1.40;;;;;;;;;;6288371;28;20302;-77
2022/01/22 09:12:30;;;;;;;1.73;1.70;;;;;;;;;;6289636;28;20254;-76
2022/01/22 09:15:50;;;;;;;1.23;1.23;;;;;;;;;;6287924;28;20217;-76
2022/01/22 09:18:54;;;;;;;1.30;1.30;;;;;;;;;;6288412;28;20234;-76
2022/01/22 09:22:01;;;;;;;1.40;1.40;;;;;;;;;;6289973;28;20276;-77
2022/01/22 09:25:15;;;;;;;1.10;1.10;;;;;;;;;;6287664;28;20548;-76
2022/01/22 09:28:19;;;;;;;1.90;1.80;;;;;;;;;;6287085;28;20257;-76
2022/01/22 09:31:28;;;;;;;4.40;1.57;;;;;;;;;;6276854;28;20222;-77
2022/01/22 09:34:34;;;;;;;1.80;1.13;;;;;;;;;;6245062;28;20229;-77
2022/01/22 09:37:50;;;;;;;2.43;1.50;;;;;;;;;;6264834;28;20245;-80
2022/01/22 09:41:14;;;;;;;2.33;2.23;;;;;;;;;;6265392;28;20203;-78
2022/01/22 09:44:41;;;;;;;1.43;1.43;;;;;;;;;;6265502;28;20234;-78
2022/01/22 09:48:06;;;;;;;1.60;1.50;;;;;;;;;;6254985;28;20290;-78
2022/01/22 09:51:15;;;;;;;5.20;1.60;;;;;;;;;;6247857;28;20265;-78
2022/01/22 09:54:39;;;;;;;1.37;1.37;;;;;;;;;;6265809;28;20259;-79
2022/01/22 09:58:02;;;;;;;1.67;1.67;;;;;;;;;;6264761;28;20210;-76
2022/01/22 10:01:34;;;;;;;5.30;1.60;;;;;;;;;;6246791;28;20238;-76
2022/01/22 10:04:59;;;;;;;1.57;1.50;;;;;;;;;;6260585;28;20506;-76
2022/01/22 10:08:25;;;;;;;2.70;1.87;;;;;;;;;;6261476;28;20241;-76
2022/01/22 10:12:09;;;;;;;4.40;1.47;;;;;;;;;;6262918;28;20233;-76
2022/01/22 10:15:35;;;;;;;1.50;1.50;;;;;;;;;;6261617;28;20230;-76
2022/01/22 10:18:46;;;;;;;1.80;1.33;;;;;;;;;;6244859;28;20236;-76
2022/01/22 10:21:56;;;;;;;3.00;1.53;;;;;;;;;;6261965;28;20493;-76
2022/01/22 10:25:00;;;;;;;1.60;1.60;;;;;;;;;;6261484;28;20541;-76
2022/01/22 10:28:07;;;;;;;1.60;1.50;;;;;;;;;;6262658;28;20246;-77
2022/01/22 10:31:19;;;;;;;1.30;1.30;;;;;;;;;;6270793;28;20206;-77
2022/01/22 10:34:42;;;;;;;1.97;1.87;;;;;;;;;;6287292;28;20315;-77
2022/01/22 10:38:17;;;;;;;1.80;1.70;;;;;;;;;;6274685;28;20274;-77
2022/01/22 10:41:33;;;;;;;1.83;1.70;;;;;;;;;;6311390;28;20450;-78
2022/01/22 10:44:45;;;;;;;3.30;1.60;;;;;;;;;;6310908;28;20235;-77
2022/01/22 10:47:49;;;;;;;1.77;1.70;;;;;;;;;;6311295;28;20195;-78
2022/01/22 10:51:01;;;;;;;1.60;1.60;;;;;;;;;;6310861;28;20556;-77
2022/01/22 10:54:11;;;;;;;1.80;1.70;;;;;;;;;;6310950;28;20261;-77
2022/01/22 10:57:18;;;;;;;1.47;1.47;;;;;;;;;;6310822;28;20250;-77
2022/01/22 11:00:23;;;;;;;1.70;1.60;;;;;;;;;;6310778;28;20228;-77
2022/01/22 11:03:28;;;;;;;1.40;1.40;;;;;;;;;;6310903;28;20233;-77
2022/01/22 11:06:32;;;;;;;1.50;1.50;;;;;;;;;;6311822;28;20187;-77
2022/01/22 11:09:37;;;;;;;1.30;1.30;;;;;;;;;;6311285;28;20295;-77
2022/01/22 11:12:42;;;;;;;1.50;1.50;;;;;;;;;;6311760;28;20218;-77
2022/01/22 11:15:50;;;;;;;1.53;1.53;;;;;;;;;;6311489;28;20207;-77
2022/01/22 11:18:54;;;;;;;5.50;1.57;;;;;;;;;;6310210;28;20569;-77
2022/01/22 11:22:02;;;;;;;1.30;1.30;;;;;;;;;;6311049;28;20190;-78
2022/01/22 11:25:10;;;;;;;1.60;1.60;;;;;;;;;;6310878;28;20298;-79
2022/01/22 11:28:16;;;;;;;3.47;1.30;;;;;;;;;;6311909;28;20309;-79
2022/01/22 11:31:23;;;;;;;1.60;1.60;;;;;;;;;;6312287;28;20199;-79
2022/01/22 11:34:31;;;;;;;1.40;1.40;;;;;;;;;;6311887;28;20253;-79
2022/01/22 11:37:38;;;;;;;1.60;1.60;;;;;;;;;;6311962;28;20446;-79
2022/01/22 11:40:43;;;;;;;1.60;1.60;;;;;;;;;;6311956;28;20324;-79
2022/01/22 11:44:10;;;;;;;1.60;1.60;;;;;;;;;;6312059;28;20289;-78
2022/01/22 11:47:17;;;;;;;1.57;1.53;;;;;;;;;;6312398;28;20202;-79
2022/01/22 11:50:23;;;;;;;6.80;1.80;;;;;;;;;;6311382;28;20230;-79
2022/01/22 11:53:29;;;;;;;3.60;1.77;;;;;;;;;;6310618;28;20421;-79
2022/01/22 11:56:42;;;;;;;1.50;1.40;;;;;;;;;;6311662;28;20312;-79
2022/01/22 11:59:47;;;;;;;3.03;1.40;;;;;;;;;;6310977;28;20303;-79
2022/01/22 12:03:22;;;;;;;1.50;1.40;;;;;;;;;;6312285;28;20373;-80
2022/01/22 12:07:13;;;;;;;1.50;1.50;;;;;;;;;;6283065;28;20201;-79
2022/01/22 12:10:34;;;;;;;1.40;1.40;;;;;;;;;;6315818;28;20237;-79
2022/01/22 12:17:23;;;;;;;1.73;1.63;;;;;;;;;;6290855;28;20262;-77
2022/01/22 12:24:12;;;;;;;2.23;1.57;;;;;;;;;;6293876;28;20236;-78
2022/01/22 12:27:42;;;;;;;1.50;1.50;;;;;;;;;;6315059;28;20187;-78
2022/01/22 12:30:48;;;;;;;1.37;1.37;;;;;;;;;;6310229;28;20405;-78
2022/01/22 12:33:53;;;;;;;1.70;1.70;;;;;;;;;;6289421;28;20323;-76
2022/01/22 12:37:17;;;;;;;1.43;1.40;;;;;;;;;;6290039;28;20245;-76
2022/01/22 12:40:34;;;;;;;1.30;1.30;;;;;;;;;;6288688;28;20231;-77
2022/01/22 12:43:38;;;;;;;1.43;1.43;;;;;;;;;;6289013;28;20307;-76
2022/01/22 12:46:44;;;;;;;1.63;1.63;;;;;;;;;;6289996;28;20195;-76
2022/01/22 12:49:59;;;;;;;2.63;1.70;;;;;;;;;;6289613;28;20234;-76
2022/01/22 12:53:15;;;;;;;1.50;1.50;;;;;;;;;;6288363;28;20413;-76
2022/01/22 12:56:49;;;;;;;2.93;1.47;;;;;;;;;;6289799;28;20248;-76
2022/01/22 13:00:01;;;;;;;1.70;1.70;;;;;;;;;;6288994;28;20233;-76
2022/01/22 13:03:05;;;;;;;1.60;1.50;;;;;;;;;;6288539;28;20236;-75
2022/01/22 13:06:11;;;;;;;1.80;1.80;;;;;;;;;;6288688;28;20194;-75
2022/01/22 13:09:48;;;;;;;1.57;1.50;;;;;;;;;;6288447;28;20239;-76
2022/01/22 13:12:53;;;;;;;1.70;1.70;;;;;;;;;;6288441;28;20188;-77
2022/01/22 13:16:02;;;;;;;2.00;1.57;;;;;;;;;;6287014;28;20397;-76
2022/01/22 13:19:06;;;;;;;1.50;1.50;;;;;;;;;;6287735;28;20263;-76
2022/01/22 13:22:12;;;;;;;1.93;1.70;;;;;;;;;;6288678;28;20273;-76
2022/01/22 13:25:18;;;;;;;2.87;1.50;;;;;;;;;;6290227;28;20273;-78
2022/01/22 13:28:28;;;;;;;1.40;1.40;;;;;;;;;;6289917;28;20515;-79
2022/01/22 13:31:33;;;;;;;1.80;1.60;;;;;;;;;;6302010;28;20199;-77
2022/01/22 13:34:59;;;;;;;1.43;1.33;;;;;;;;;;6315100;28;20234;-76
2022/01/22 13:45:20;;;;;;;1.13;1.13;;;;;;;;;;6299280;28;20238;-77
2022/01/22 13:48:27;;;;;;;1.50;1.50;;;;;;;;;;6315211;28;20228;-76
2022/01/22 13:51:32;;;;;;;1.90;1.90;;;;;;;;;;6302401;28;20199;-76
2022/01/22 13:54:42;;;;;;;1.70;1.70;;;;;;;;;;6319046;28;20256;-76
2022/01/22 13:57:50;;;;;;;1.53;1.53;;;;;;;;;;6298862;28;20256;-77
2022/01/22 14:01:05;;;;;;;4.73;1.97;;;;;;;;;;6302533;28;20207;-76
2022/01/22 14:04:38;;;;;;;2.23;2.13;;;;;;;;;;6296519;28;20240;-76
2022/01/22 14:07:46;;;;;;;2.50;1.70;;;;;;;;;;6311491;28;20186;-76
2022/01/22 14:10:50;;;;;;;1.80;1.63;;;;;;;;;;6312399;28;20207;-76
2022/01/22 14:14:04;;;;;;;4.33;1.50;;;;;;;;;;6312021;28;20281;-76
2022/01/22 14:17:11;;;;;;;1.23;1.23;;;;;;;;;;6312639;28;20194;-76
2022/01/22 14:20:15;;;;;;;1.70;1.70;;;;;;;;;;6293444;28;20538;-76
2022/01/22 14:23:20;;;;;;;1.67;1.57;;;;;;;;;;6311416;28;20228;-77
2022/01/22 14:26:34;;;;;;;1.43;1.43;;;;;;;;;;6311943;28;20344;-77
2022/01/22 14:29:44;;;;;;;4.30;1.67;;;;;;;;;;6311077;28;20256;-77
2022/01/22 14:32:56;;;;;;;1.60;1.50;;;;;;;;;;6289730;28;20199;-77
2022/01/22 14:36:02;;;;;;;1.60;1.60;;;;;;;;;;6286337;28;20547;-77
2022/01/22 14:39:13;;;;;;;1.40;1.40;;;;;;;;;;6286652;28;20224;-77
2022/01/22 14:45:57;;;;;;;4.53;2.10;;;;;;;;;;6251419;28;20221;-77
2022/01/22 14:49:01;;;;;;;1.77;1.63;;;;;;;;;;6285717;28;20524;-77
2022/01/22 14:52:06;;;;;;;1.90;1.80;;;;;;;;;;6287003;28;20193;-77
2022/01/22 14:55:11;;;;;;;1.43;1.37;;;;;;;;;;6284274;28;20310;-77
2022/01/22 14:58:15;;;;;;;3.00;1.40;;;;;;;;;;6286458;28;20272;-77
2022/01/22 15:01:21;;;;;;;1.80;1.80;;;;;;;;;;6285827;28;20376;-78
2022/01/22 15:04:26;;;;;;;4.53;2.37;;;;;;;;;;6286594;28;20235;-81
2022/01/22 15:07:31;;;;;;;3.73;1.80;;;;;;;;;;6287759;28;20185;-77
2022/01/22 15:10:35;;;;;;;1.97;1.97;;;;;;;;;;6282899;28;20425;-77
2022/01/22 15:13:40;;;;;;;2.27;2.07;;;;;;;;;;6283623;28;20330;-77
2022/01/22 15:16:48;;;;;;;2.17;2.17;;;;;;;;;;6286379;28;20239;-77
2022/01/22 15:19:53;;;;;;;1.97;1.80;;;;;;;;;;6285533;28;20298;-77
2022/01/22 15:23:00;;;;;;;1.90;1.63;;;;;;;;;;6285088;28;20238;-77
2022/01/22 15:26:06;;;;;;;2.67;1.90;;;;;;;;;;6285648;28;20191;-77
2022/01/22 15:29:14;;;;;;;2.10;2.00;;;;;;;;;;6284113;28;20232;-77
2022/01/22 15:32:38;;;;;;;1.90;1.80;;;;;;;;;;6302412;28;20246;-77
2022/01/22 15:35:42;;;;;;;1.87;1.83;;;;;;;;;;6310393;28;20403;-77
2022/01/22 15:38:46;;;;;;;8.87;2.03;;;;;;;;;;6310649;28;20232;-76
2022/01/22 15:41:51;;;;;;;1.73;1.73;;;;;;;;;;6314283;28;20293;-77
2022/01/22 15:44:55;;;;;;;7.60;2.00;;;;;;;;;;6316211;28;20233;-77
2022/01/22 15:48:00;;;;;;;1.70;1.70;;;;;;;;;;6315693;28;20305;-77
2022/01/22 15:51:07;;;;;;;1.83;1.77;;;;;;;;;;6315508;28;20233;-77
2022/01/22 15:54:12;;;;;;;2.30;1.90;;;;;;;;;;6316318;28;20187;-77
2022/01/22 15:57:16;;;;;;;4.57;2.07;;;;;;;;;;6315381;28;20266;-77
2022/01/22 16:00:25;;;;;;;2.03;1.93;;;;;;;;;;6314159;28;20184;-78
2022/01/22 16:03:31;;;;;;;2.40;2.20;;;;;;;;;;6314673;28;20184;-77
2022/01/22 16:06:40;;;;;;;2.27;2.17;;;;;;;;;;6314357;28;20586;-77
2022/01/22 16:09:44;;;;;;;2.77;2.40;;;;;;;;;;6315723;28;20188;-77
2022/01/22 16:12:56;;;;;;;2.53;2.30;;;;;;;;;;6315007;28;20238;-77
2022/01/22 16:16:01;;;;;;;2.00;1.90;;;;;;;;;;6313948;28;20252;-76
2022/01/22 16:19:07;;;;;;;2.13;2.03;;;;;;;;;;6315165;28;20187;-76
2022/01/22 16:22:14;;;;;;;1.80;1.80;;;;;;;;;;6314210;28;20269;-77
2022/01/22 16:25:19;;;;;;;3.43;2.53;;;;;;;;;;6315268;28;20206;-77
2022/01/22 16:28:23;;;;;;;2.13;2.00;;;;;;;;;;6315123;28;20210;-77
2022/01/22 16:31:29;;;;;;;1.97;1.97;;;;;;;;;;6302287;28;20236;-77
2022/01/22 16:34:37;;;;;;;2.37;1.70;;;;;;;;;;6290128;28;20295;-77
2022/01/22 16:37:41;;;;;;;1.97;1.93;;;;;;;;;;6290053;28;20238;-77
2022/01/22 16:40:46;;;;;;;2.10;1.90;;;;;;;;;;6289937;28;20278;-77
2022/01/22 16:43:50;;;;;;;2.17;1.97;;;;;;;;;;6288873;28;20301;-78
2022/01/22 16:54:22;;;;;;;1.73;1.67;;;;;;;;;;6289354;28;20234;-77
2022/01/22 16:57:17;;;;;;;2.23;1.80;;;;;;;;;;6288595;28;20448;-78
2022/01/22 17:00:28;;;;;;;1.40;1.40;;;;;;;;;;6290495;28;20211;-78
2022/01/22 17:03:33;;;;;;;1.73;1.73;;;;;;;;;;6288995;28;20312;-78
2022/01/22 17:06:40;;;;;;;1.93;1.83;;;;;;;;;;6288639;28;20258;-78
2022/01/22 17:16:28;;;;;;;1.63;1.63;;;;;;;;;;6288185;28;20318;-77
2022/01/22 17:19:32;;;;;;;2.77;1.60;;;;;;;;;;6288371;28;20355;-77
2022/01/22 17:22:38;;;;;;;7.40;1.90;;;;;;;;;;6289112;28;20242;-78
2022/01/22 17:25:42;;;;;;;5.10;2.07;;;;;;;;;;6289030;28;20244;-78
2022/01/22 17:28:46;;;;;;;3.80;1.87;;;;;;;;;;6290251;28;20235;-78
2022/01/22 17:31:50;;;;;;;2.50;1.97;;;;;;;;;;6277602;28;20235;-79
2022/01/22 17:34:54;;;;;;;1.87;1.87;;;;;;;;;;6264758;28;20185;-78
2022/01/22 17:38:00;;;;;;;2.20;2.10;;;;;;;;;;6299009;28;20245;-78
2022/01/22 17:41:15;;;;;;;2.23;2.17;;;;;;;;;;6315319;28;20188;-78
2022/01/22 17:44:22;;;;;;;10.93;2.40;;;;;;;;;;6315514;28;20339;-78
2022/01/22 17:47:26;;;;;;;1.90;1.90;;;;;;;;;;6315432;28;20347;-77
2022/01/22 17:50:30;;;;;;;2.50;2.07;;;;;;;;;;6313316;28;20485;-77
2022/01/22 17:53:37;;;;;;;2.50;2.30;;;;;;;;;;6313609;28;20230;-77
2022/01/22 17:56:43;;;;;;;2.30;2.20;;;;;;;;;;6313348;28;20306;-77
2022/01/22 17:59:47;;;;;;;2.43;2.33;;;;;;;;;;6313468;28;20230;-78
2022/01/22 18:02:51;;;;;;;2.00;2.00;;;;;;;;;;6314622;28;20230;-81
2022/01/22 18:05:56;;;;;;;2.57;2.43;;;;;;;;;;6315352;28;20243;-78
2022/01/22 18:09:05;;;;;;;3.13;2.80;;;;;;;;;;6315313;28;20207;-77
2022/01/22 18:12:11;;;;;;;2.40;2.30;;;;;;;;;;6314775;28;20230;-78
2022/01/22 18:15:16;;;;;;;4.00;3.60;;;;;;;;;;6316465;28;20191;-78
2022/01/22 18:18:22;;;;;;;3.13;2.83;;;;;;;;;;6314030;28;20273;-78
2022/01/22 18:21:28;;;;;;;3.13;2.97;;;;;;;;;;6312993;28;20226;-78
2022/01/22 18:24:33;;;;;;;3.50;2.83;;;;;;;;;;6314847;28;20193;-78
2022/01/22 18:27:37;;;;;;;2.77;2.63;;;;;;;;;;6311620;28;20244;-77
2022/01/22 18:30:41;;;;;;;2.90;2.70;;;;;;;;;;6307143;28;20497;-77
2022/01/22 18:33:46;;;;;;;2.70;2.60;;;;;;;;;;6286912;28;20231;-78
2022/01/22 18:36:52;;;;;;;2.57;2.47;;;;;;;;;;6287034;28;20302;-77
2022/01/22 18:39:59;;;;;;;3.37;2.50;;;;;;;;;;6286643;28;20188;-77
2022/01/22 18:43:03;;;;;;;3.03;2.83;;;;;;;;;;6286900;28;20307;-77
2022/01/22 18:46:12;;;;;;;4.10;2.83;;;;;;;;;;6286422;28;20400;-78
2022/01/22 18:49:36;;;;;;;2.10;2.00;;;;;;;;;;6291802;28;20187;-77
2022/01/22 18:52:46;;;;;;;2.63;2.53;;;;;;;;;;6286673;28;20234;-77
2022/01/22 18:55:52;;;;;;;6.57;2.30;;;;;;;;;;6290602;28;20255;-78
2022/01/22 18:58:59;;;;;;;2.23;2.13;;;;;;;;;;6278858;28;20258;-78
2022/01/22 19:02:06;;;;;;;2.50;2.40;;;;;;;;;;6286436;28;20471;-77
2022/01/22 19:05:11;;;;;;;8.43;2.80;;;;;;;;;;6287128;28;20256;-77
2022/01/22 19:08:15;;;;;;;2.80;2.60;;;;;;;;;;6286810;28;20231;-77
2022/01/22 19:11:21;;;;;;;3.93;3.27;;;;;;;;;;6288669;28;20262;-78
2022/01/22 19:14:26;;;;;;;2.30;2.20;;;;;;;;;;6290720;28;20212;-78
2022/01/22 19:17:35;;;;;;;4.63;3.00;;;;;;;;;;6269389;28;20242;-77
2022/01/22 19:20:41;;;;;;;3.30;3.00;;;;;;;;;;6286610;28;20215;-76
2022/01/22 19:23:50;;;;;;;2.97;2.83;;;;;;;;;;6285722;28;20273;-77
2022/01/22 19:30:15;;;;;;;2.77;2.67;;;;;;;;;;6286702;28;20207;-77
2022/01/22 19:33:19;;;;;;;3.07;2.60;;;;;;;;;;6262896;28;20243;-77
2022/01/22 19:36:24;;;;;;;2.80;2.50;;;;;;;;;;6270466;28;20241;-77
2022/01/22 19:39:29;;;;;;;3.77;2.30;;;;;;;;;;6314411;28;20214;-78
2022/01/22 19:42:40;;;;;;;2.20;2.10;;;;;;;;;;6316088;28;20237;-77
2022/01/22 19:45:49;;;;;;;2.20;2.10;;;;;;;;;;6300943;28;20484;-77
2022/01/22 19:49:05;;;;;;;2.33;2.33;;;;;;;;;;6271122;28;20417;-77
2022/01/22 19:52:09;;;;;;;2.63;2.43;;;;;;;;;;6312579;28;20429;-77
2022/01/22 19:55:14;;;;;;;2.47;2.37;;;;;;;;;;6310890;28;20536;-77
2022/01/22 19:58:20;;;;;;;2.37;2.13;;;;;;;;;;6311776;28;20251;-77
2022/01/22 20:01:29;;;;;;;2.70;2.50;;;;;;;;;;6316280;28;20293;-77
2022/01/22 20:04:36;;;;;;;2.63;2.53;;;;;;;;;;6313082;28;20206;-77
2022/01/22 20:07:40;;;;;;;3.00;2.80;;;;;;;;;;6315100;28;20406;-77
2022/01/22 20:10:46;;;;;;;2.93;2.83;;;;;;;;;;6312058;28;20264;-77
2022/01/22 20:13:52;;;;;;;3.33;2.90;;;;;;;;;;6310807;28;20544;-77
2022/01/22 20:16:56;;;;;;;3.53;3.23;;;;;;;;;;6312822;28;20253;-77
2022/01/22 20:20:01;;;;;;;3.50;3.30;;;;;;;;;;6314735;28;20289;-77
2022/01/22 20:23:25;;;;;;;3.73;3.40;;;;;;;;;;6310579;28;20227;-76
2022/01/22 20:26:30;;;;;;;3.70;3.03;;;;;;;;;;6314694;28;20285;-76
2022/01/22 20:29:35;;;;;;;3.97;3.70;;;;;;;;;;6299471;28;20206;-76
2022/01/22 20:33:00;;;;;;;2.93;2.80;;;;;;;;;;6292568;28;20242;-76
2022/01/22 20:36:04;;;;;;;3.30;2.80;;;;;;;;;;6291130;28;20186;-76
2022/01/22 20:39:09;;;;;;;2.60;2.33;;;;;;;;;;6296028;28;20219;-76